Benge, Washington
Current Conditions -  °F | °C
As of 2:53 PM on Monday 24 Nov 2014 (Local Time) from KPUW Reporting Station
Overcast Overcast  
Wind Chill: 33°   Ceiling: 10000
Heat Index: 40°   Visibility: 10mi
Dew Point: 32°   Wind: 13mph
Humidity: 73%   Direction: 140°SE
Pressure: 30.29"   Gusts: NA
Location:  46.91°N, 118.1°W
Report Text: KPUW 242253Z AUTO 14011KT 10SM OVC100 04/00 A3029 RMK AO2 SLP273 T00440000
Loading
Personal Weather Stations






























Interactive Weather Map New forecast layout! Learn more

10-Day Weather Forecast

Advertisements
Track Severe Weather on mobile